sensor_id;sensor_type;location;lat;lon;timestamp;P1;durP1;ratioP1;P2;durP2;ratioP2
14892;SDS011;7538;53.626;9.906;2022-11-14T00:01:57;31.43;;;23.17;;
14892;SDS011;7538;53.626;9.906;2022-11-14T00:04:24;31.83;;;23.30;;
14892;SDS011;7538;53.626;9.906;2022-11-14T00:06:52;32.27;;;22.70;;
14892;SDS011;7538;53.626;9.906;2022-11-14T00:09:19;33.50;;;22.90;;
14892;SDS011;7538;53.626;9.906;2022-11-14T00:11:50;32.33;;;23.37;;
14892;SDS011;7538;53.626;9.906;2022-11-14T00:14:16;30.02;;;21.90;;
14892;SDS011;7538;53.626;9.906;2022-11-14T00:16:43;32.90;;;22.75;;
14892;SDS011;7538;53.626;9.906;2022-11-14T00:19:10;32.13;;;23.77;;
14892;SDS011;7538;53.626;9.906;2022-11-14T00:21:37;30.83;;;22.20;;
14892;SDS011;7538;53.626;9.906;2022-11-14T00:24:05;31.90;;;22.50;;
14892;SDS011;7538;53.626;9.906;2022-11-14T00:26:32;32.87;;;24.37;;
14892;SDS011;7538;53.626;9.906;2022-11-14T00:28:59;32.88;;;22.80;;
14892;SDS011;7538;53.626;9.906;2022-11-14T00:31:26;32.17;;;21.90;;
14892;SDS011;7538;53.626;9.906;2022-11-14T00:33:52;33.07;;;23.03;;
14892;SDS011;7538;53.626;9.906;2022-11-14T00:36:19;33.38;;;22.88;;
14892;SDS011;7538;53.626;9.906;2022-11-14T00:38:46;34.20;;;23.40;;
14892;SDS011;7538;53.626;9.906;2022-11-14T00:41:14;33.37;;;23.30;;
14892;SDS011;7538;53.626;9.906;2022-11-14T00:43:41;32.83;;;22.98;;
14892;SDS011;7538;53.626;9.906;2022-11-14T00:46:08;32.80;;;23.50;;
14892;SDS011;7538;53.626;9.906;2022-11-14T00:48:34;34.72;;;23.48;;
14892;SDS011;7538;53.626;9.906;2022-11-14T00:51:01;36.07;;;24.70;;
14892;SDS011;7538;53.626;9.906;2022-11-14T00:53:28;31.30;;;22.50;;
14892;SDS011;7538;53.626;9.906;2022-11-14T00:55:55;35.13;;;24.20;;
14892;SDS011;7538;53.626;9.906;2022-11-14T00:58:23;36.25;;;24.15;;
14892;SDS011;7538;53.626;9.906;2022-11-14T01:00:50;34.37;;;23.50;;
14892;SDS011;7538;53.626;9.906;2022-11-14T01:03:17;33.23;;;23.77;;
14892;SDS011;7538;53.626;9.906;2022-11-14T01:05:44;35.90;;;24.03;;
14892;SDS011;7538;53.626;9.906;2022-11-14T01:08:13;36.17;;;23.67;;
14892;SDS011;7538;53.626;9.906;2022-11-14T01:10:42;35.47;;;23.42;;
14892;SDS011;7538;53.626;9.906;2022-11-14T01:13:10;35.10;;;23.13;;
14892;SDS011;7538;53.626;9.906;2022-11-14T01:15:39;35.70;;;24.67;;
14892;SDS011;7538;53.626;9.906;2022-11-14T01:18:07;38.55;;;24.90;;
14892;SDS011;7538;53.626;9.906;2022-11-14T01:20:37;38.43;;;24.67;;
14892;SDS011;7538;53.626;9.906;2022-11-14T01:23:04;37.07;;;24.53;;
14892;SDS011;7538;53.626;9.906;2022-11-14T01:25:31;37.40;;;24.23;;
14892;SDS011;7538;53.626;9.906;2022-11-14T01:27:58;39.50;;;25.00;;
14892;SDS011;7538;53.626;9.906;2022-11-14T01:30:25;36.67;;;24.70;;
14892;SDS011;7538;53.626;9.906;2022-11-14T01:32:53;35.93;;;24.03;;
14892;SDS011;7538;53.626;9.906;2022-11-14T01:35:20;36.83;;;23.57;;
14892;SDS011;7538;53.626;9.906;2022-11-14T01:37:46;36.10;;;24.60;;
14892;SDS011;7538;53.626;9.906;2022-11-14T01:40:13;37.67;;;24.03;;
14892;SDS011;7538;53.626;9.906;2022-11-14T01:42:40;37.30;;;23.97;;
14892;SDS011;7538;53.626;9.906;2022-11-14T01:48:14;36.37;;;24.17;;
14892;SDS011;7538;53.626;9.906;2022-11-14T01:50:52;38.47;;;24.50;;
14892;SDS011;7538;53.626;9.906;2022-11-14T01:53:21;38.90;;;24.10;;
14892;SDS011;7538;53.626;9.906;2022-11-14T01:55:48;38.07;;;25.33;;
14892;SDS011;7538;53.626;9.906;2022-11-14T01:58:16;37.27;;;25.73;;
14892;SDS011;7538;53.626;9.906;2022-11-14T02:00:43;37.03;;;24.83;;
14892;SDS011;7538;53.626;9.906;2022-11-14T02:03:10;39.13;;;26.10;;
14892;SDS011;7538;53.626;9.906;2022-11-14T02:05:41;43.23;;;25.93;;
14892;SDS011;7538;53.626;9.906;2022-11-14T02:08:10;38.27;;;25.80;;
14892;SDS011;7538;53.626;9.906;2022-11-14T02:10:39;36.73;;;24.77;;
14892;SDS011;7538;53.626;9.906;2022-11-14T02:13:06;39.57;;;24.23;;
14892;SDS011;7538;53.626;9.906;2022-11-14T02:15:33;39.53;;;25.87;;
14892;SDS011;7538;53.626;9.906;2022-11-14T02:18:00;39.90;;;26.00;;
14892;SDS011;7538;53.626;9.906;2022-11-14T02:20:29;41.10;;;25.63;;
14892;SDS011;7538;53.626;9.906;2022-11-14T02:22:58;38.13;;;26.37;;
14892;SDS011;7538;53.626;9.906;2022-11-14T02:25:25;39.83;;;25.37;;
14892;SDS011;7538;53.626;9.906;2022-11-14T02:27:52;40.90;;;26.73;;
14892;SDS011;7538;53.626;9.906;2022-11-14T02:30:21;40.70;;;25.47;;
14892;SDS011;7538;53.626;9.906;2022-11-14T02:32:48;37.57;;;25.00;;
14892;SDS011;7538;53.626;9.906;2022-11-14T02:35:15;41.37;;;26.43;;
14892;SDS011;7538;53.626;9.906;2022-11-14T02:37:43;39.57;;;25.67;;
14892;SDS011;7538;53.626;9.906;2022-11-14T02:40:10;39.40;;;26.10;;
14892;SDS011;7538;53.626;9.906;2022-11-14T02:42:37;38.67;;;25.33;;
14892;SDS011;7538;53.626;9.906;2022-11-14T02:45:04;40.13;;;25.83;;
14892;SDS011;7538;53.626;9.906;2022-11-14T02:47:31;40.20;;;26.67;;
14892;SDS011;7538;53.626;9.906;2022-11-14T02:49:58;39.80;;;25.50;;
14892;SDS011;7538;53.626;9.906;2022-11-14T02:52:25;39.77;;;26.40;;
14892;SDS011;7538;53.626;9.906;2022-11-14T02:54:53;42.00;;;26.83;;
14892;SDS011;7538;53.626;9.906;2022-11-14T02:57:20;41.33;;;26.10;;
14892;SDS011;7538;53.626;9.906;2022-11-14T02:59:47;39.80;;;27.00;;
14892;SDS011;7538;53.626;9.906;2022-11-14T03:02:14;40.17;;;26.73;;
14892;SDS011;7538;53.626;9.906;2022-11-14T03:04:40;43.83;;;27.67;;
14892;SDS011;7538;53.626;9.906;2022-11-14T03:07:07;38.60;;;26.50;;
14892;SDS011;7538;53.626;9.906;2022-11-14T03:09:34;42.70;;;26.73;;
14892;SDS011;7538;53.626;9.906;2022-11-14T03:12:02;40.47;;;27.10;;
14892;SDS011;7538;53.626;9.906;2022-11-14T03:14:29;41.93;;;26.97;;
14892;SDS011;7538;53.626;9.906;2022-11-14T03:16:56;43.27;;;27.37;;
14892;SDS011;7538;53.626;9.906;2022-11-14T03:19:23;42.67;;;27.60;;
14892;SDS011;7538;53.626;9.906;2022-11-14T03:21:50;44.93;;;27.37;;
14892;SDS011;7538;53.626;9.906;2022-11-14T03:24:17;40.13;;;27.73;;
14892;SDS011;7538;53.626;9.906;2022-11-14T03:26:43;47.07;;;28.73;;
14892;SDS011;7538;53.626;9.906;2022-11-14T03:29:12;44.10;;;27.67;;
14892;SDS011;7538;53.626;9.906;2022-11-14T03:31:38;43.37;;;27.67;;
14892;SDS011;7538;53.626;9.906;2022-11-14T03:34:05;42.23;;;27.13;;
14892;SDS011;7538;53.626;9.906;2022-11-14T03:36:32;37.80;;;26.70;;
14892;SDS011;7538;53.626;9.906;2022-11-14T03:38:59;41.90;;;27.13;;
14892;SDS011;7538;53.626;9.906;2022-11-14T03:41:26;40.33;;;27.90;;
14892;SDS011;7538;53.626;9.906;2022-11-14T03:43:53;41.23;;;26.67;;
14892;SDS011;7538;53.626;9.906;2022-11-14T03:46:21;45.47;;;28.17;;
14892;SDS011;7538;53.626;9.906;2022-11-14T03:48:48;43.20;;;29.23;;
14892;SDS011;7538;53.626;9.906;2022-11-14T03:51:15;41.77;;;27.60;;
14892;SDS011;7538;53.626;9.906;2022-11-14T03:53:41;43.37;;;27.33;;
14892;SDS011;7538;53.626;9.906;2022-11-14T03:56:08;44.87;;;29.17;;
14892;SDS011;7538;53.626;9.906;2022-11-14T03:58:35;42.63;;;27.97;;
14892;SDS011;7538;53.626;9.906;2022-11-14T04:01:02;42.27;;;28.00;;
14892;SDS011;7538;53.626;9.906;2022-11-14T04:03:30;47.10;;;28.90;;
14892;SDS011;7538;53.626;9.906;2022-11-14T04:05:56;44.97;;;28.80;;
14892;SDS011;7538;53.626;9.906;2022-11-14T04:08:23;41.43;;;27.47;;
14892;SDS011;7538;53.626;9.906;2022-11-14T04:10:50;45.77;;;29.13;;
14892;SDS011;7538;53.626;9.906;2022-11-14T04:13:17;44.23;;;28.97;;
14892;SDS011;7538;53.626;9.906;2022-11-14T04:15:43;43.90;;;28.67;;
14892;SDS011;7538;53.626;9.906;2022-11-14T04:18:10;46.37;;;29.00;;
14892;SDS011;7538;53.626;9.906;2022-11-14T04:20:39;45.10;;;28.87;;
14892;SDS011;7538;53.626;9.906;2022-11-14T04:23:05;49.73;;;28.93;;
14892;SDS011;7538;53.626;9.906;2022-11-14T04:25:32;50.60;;;30.00;;
14892;SDS011;7538;53.626;9.906;2022-11-14T04:27:59;45.63;;;29.93;;
14892;SDS011;7538;53.626;9.906;2022-11-14T04:30:26;47.70;;;30.20;;
14892;SDS011;7538;53.626;9.906;2022-11-14T04:32:52;50.03;;;28.47;;
14892;SDS011;7538;53.626;9.906;2022-11-14T04:35:19;41.77;;;27.37;;
14892;SDS011;7538;53.626;9.906;2022-11-14T04:37:47;47.33;;;29.83;;
14892;SDS011;7538;53.626;9.906;2022-11-14T04:40:14;43.90;;;28.40;;
14892;SDS011;7538;53.626;9.906;2022-11-14T04:42:41;44.43;;;28.43;;
14892;SDS011;7538;53.626;9.906;2022-11-14T04:45:08;45.10;;;28.57;;
14892;SDS011;7538;53.626;9.906;2022-11-14T04:47:35;46.23;;;28.67;;
14892;SDS011;7538;53.626;9.906;2022-11-14T04:50:02;46.33;;;29.57;;
14892;SDS011;7538;53.626;9.906;2022-11-14T04:52:29;48.10;;;30.77;;
14892;SDS011;7538;53.626;9.906;2022-11-14T04:54:57;44.60;;;29.13;;
14892;SDS011;7538;53.626;9.906;2022-11-14T04:57:24;43.87;;;27.87;;
14892;SDS011;7538;53.626;9.906;2022-11-14T04:59:52;45.40;;;28.47;;
14892;SDS011;7538;53.626;9.906;2022-11-14T05:02:19;46.93;;;29.40;;
14892;SDS011;7538;53.626;9.906;2022-11-14T05:04:45;45.67;;;28.63;;
14892;SDS011;7538;53.626;9.906;2022-11-14T05:07:13;45.67;;;29.33;;
14892;SDS011;7538;53.626;9.906;2022-11-14T05:09:40;44.40;;;28.17;;
14892;SDS011;7538;53.626;9.906;2022-11-14T05:12:08;45.93;;;29.13;;
14892;SDS011;7538;53.626;9.906;2022-11-14T05:14:35;45.13;;;28.13;;
14892;SDS011;7538;53.626;9.906;2022-11-14T05:17:01;47.10;;;27.83;;
14892;SDS011;7538;53.626;9.906;2022-11-14T05:19:28;48.27;;;29.60;;
14892;SDS011;7538;53.626;9.906;2022-11-14T05:21:55;44.63;;;27.90;;
14892;SDS011;7538;53.626;9.906;2022-11-14T05:24:22;42.80;;;27.57;;
14892;SDS011;7538;53.626;9.906;2022-11-14T05:26:49;51.27;;;30.07;;
14892;SDS011;7538;53.626;9.906;2022-11-14T05:29:17;45.57;;;28.83;;
14892;SDS011;7538;53.626;9.906;2022-11-14T05:31:44;47.17;;;29.67;;
14892;SDS011;7538;53.626;9.906;2022-11-14T05:34:11;45.17;;;28.23;;
14892;SDS011;7538;53.626;9.906;2022-11-14T05:36:38;49.73;;;31.07;;
14892;SDS011;7538;53.626;9.906;2022-11-14T05:39:04;45.83;;;28.70;;
14892;SDS011;7538;53.626;9.906;2022-11-14T05:41:31;44.20;;;28.90;;
14892;SDS011;7538;53.626;9.906;2022-11-14T05:43:58;48.53;;;31.13;;
14892;SDS011;7538;53.626;9.906;2022-11-14T05:46:26;47.57;;;29.40;;
14892;SDS011;7538;53.626;9.906;2022-11-14T05:48:53;51.63;;;29.90;;
14892;SDS011;7538;53.626;9.906;2022-11-14T05:51:20;52.30;;;29.57;;
14892;SDS011;7538;53.626;9.906;2022-11-14T05:53:46;49.30;;;29.30;;
14892;SDS011;7538;53.626;9.906;2022-11-14T05:56:13;48.57;;;29.40;;
14892;SDS011;7538;53.626;9.906;2022-11-14T05:58:40;46.70;;;29.07;;
14892;SDS011;7538;53.626;9.906;2022-11-14T06:01:08;50.40;;;31.07;;
14892;SDS011;7538;53.626;9.906;2022-11-14T06:03:37;53.50;;;30.90;;
14892;SDS011;7538;53.626;9.906;2022-11-14T06:06:06;49.57;;;30.80;;
14892;SDS011;7538;53.626;9.906;2022-11-14T06:08:34;53.73;;;30.50;;
14892;SDS011;7538;53.626;9.906;2022-11-14T06:11:02;52.83;;;31.07;;
14892;SDS011;7538;53.626;9.906;2022-11-14T06:13:29;48.10;;;30.73;;
14892;SDS011;7538;53.626;9.906;2022-11-14T06:15:57;46.63;;;29.63;;
14892;SDS011;7538;53.626;9.906;2022-11-14T06:18:25;48.33;;;31.37;;
14892;SDS011;7538;53.626;9.906;2022-11-14T06:20:54;48.90;;;30.10;;
14892;SDS011;7538;53.626;9.906;2022-11-14T06:23:24;47.87;;;29.90;;
14892;SDS011;7538;53.626;9.906;2022-11-14T06:25:51;52.53;;;30.13;;
14892;SDS011;7538;53.626;9.906;2022-11-14T06:28:22;52.97;;;31.47;;
14892;SDS011;7538;53.626;9.906;2022-11-14T06:30:49;50.10;;;31.77;;
14892;SDS011;7538;53.626;9.906;2022-11-14T06:33:16;53.37;;;30.03;;
14892;SDS011;7538;53.626;9.906;2022-11-14T06:35:43;51.00;;;31.83;;
14892;SDS011;7538;53.626;9.906;2022-11-14T06:38:11;53.10;;;30.93;;
14892;SDS011;7538;53.626;9.906;2022-11-14T06:40:37;56.43;;;32.77;;
14892;SDS011;7538;53.626;9.906;2022-11-14T06:43:04;51.33;;;31.17;;
14892;SDS011;7538;53.626;9.906;2022-11-14T06:45:31;55.83;;;31.07;;
14892;SDS011;7538;53.626;9.906;2022-11-14T06:47:58;49.13;;;31.10;;
14892;SDS011;7538;53.626;9.906;2022-11-14T06:50:25;54.20;;;31.00;;
14892;SDS011;7538;53.626;9.906;2022-11-14T06:52:52;48.93;;;30.57;;
14892;SDS011;7538;53.626;9.906;2022-11-14T06:55:20;47.87;;;30.90;;
14892;SDS011;7538;53.626;9.906;2022-11-14T06:57:51;52.07;;;30.73;;
14892;SDS011;7538;53.626;9.906;2022-11-14T07:00:19;49.00;;;28.63;;
14892;SDS011;7538;53.626;9.906;2022-11-14T07:02:46;53.67;;;30.57;;
14892;SDS011;7538;53.626;9.906;2022-11-14T07:05:13;48.60;;;30.43;;
14892;SDS011;7538;53.626;9.906;2022-11-14T07:07:40;54.67;;;31.70;;
14892;SDS011;7538;53.626;9.906;2022-11-14T07:10:07;48.60;;;29.53;;
14892;SDS011;7538;53.626;9.906;2022-11-14T07:12:36;50.33;;;30.33;;
14892;SDS011;7538;53.626;9.906;2022-11-14T07:15:03;51.43;;;31.30;;
14892;SDS011;7538;53.626;9.906;2022-11-14T07:17:30;48.27;;;29.67;;
14892;SDS011;7538;53.626;9.906;2022-11-14T07:19:59;50.77;;;30.03;;
14892;SDS011;7538;53.626;9.906;2022-11-14T07:22:26;53.33;;;30.90;;
14892;SDS011;7538;53.626;9.906;2022-11-14T07:24:53;51.07;;;31.27;;
14892;SDS011;7538;53.626;9.906;2022-11-14T07:27:20;53.77;;;31.97;;
14892;SDS011;7538;53.626;9.906;2022-11-14T07:29:48;51.00;;;29.73;;
14892;SDS011;7538;53.626;9.906;2022-11-14T07:32:14;57.33;;;31.40;;
14892;SDS011;7538;53.626;9.906;2022-11-14T07:34:41;49.27;;;29.30;;
14892;SDS011;7538;53.626;9.906;2022-11-14T07:37:08;50.00;;;30.27;;
14892;SDS011;7538;53.626;9.906;2022-11-14T07:39:35;52.20;;;30.70;;
14892;SDS011;7538;53.626;9.906;2022-11-14T07:42:01;52.37;;;31.23;;
14892;SDS011;7538;53.626;9.906;2022-11-14T07:44:28;49.43;;;31.00;;
14892;SDS011;7538;53.626;9.906;2022-11-14T07:46:57;52.77;;;31.00;;
14892;SDS011;7538;53.626;9.906;2022-11-14T07:49:23;50.63;;;30.57;;
14892;SDS011;7538;53.626;9.906;2022-11-14T07:51:50;53.33;;;30.97;;
14892;SDS011;7538;53.626;9.906;2022-11-14T07:54:17;52.03;;;30.57;;
14892;SDS011;7538;53.626;9.906;2022-11-14T07:56:44;58.10;;;32.67;;
14892;SDS011;7538;53.626;9.906;2022-11-14T07:59:10;52.67;;;31.43;;
14892;SDS011;7538;53.626;9.906;2022-11-14T08:01:37;54.03;;;32.73;;
14892;SDS011;7538;53.626;9.906;2022-11-14T08:04:05;51.87;;;30.77;;
14892;SDS011;7538;53.626;9.906;2022-11-14T08:06:32;54.07;;;32.23;;
14892;SDS011;7538;53.626;9.906;2022-11-14T08:08:59;55.37;;;31.77;;
14892;SDS011;7538;53.626;9.906;2022-11-14T08:11:25;51.83;;;30.60;;
14892;SDS011;7538;53.626;9.906;2022-11-14T08:14:13;52.63;;;29.80;;
14892;SDS011;7538;53.626;9.906;2022-11-14T08:16:41;50.23;;;30.50;;
14892;SDS011;7538;53.626;9.906;2022-11-14T08:19:09;50.90;;;30.30;;
14892;SDS011;7538;53.626;9.906;2022-11-14T08:21:35;54.70;;;31.83;;
14892;SDS011;7538;53.626;9.906;2022-11-14T08:24:02;55.43;;;32.57;;
14892;SDS011;7538;53.626;9.906;2022-11-14T08:26:30;53.67;;;32.07;;
14892;SDS011;7538;53.626;9.906;2022-11-14T08:28:56;54.07;;;31.27;;
14892;SDS011;7538;53.626;9.906;2022-11-14T08:31:23;54.23;;;32.23;;
14892;SDS011;7538;53.626;9.906;2022-11-14T08:33:50;55.43;;;31.23;;
14892;SDS011;7538;53.626;9.906;2022-11-14T08:36:19;51.53;;;31.33;;
14892;SDS011;7538;53.626;9.906;2022-11-14T08:38:45;56.20;;;33.23;;
14892;SDS011;7538;53.626;9.906;2022-11-14T08:41:12;62.47;;;32.13;;
14892;SDS011;7538;53.626;9.906;2022-11-14T08:43:39;54.77;;;31.80;;
14892;SDS011;7538;53.626;9.906;2022-11-14T08:46:06;53.87;;;31.53;;
14892;SDS011;7538;53.626;9.906;2022-11-14T08:48:33;61.03;;;33.03;;
14892;SDS011;7538;53.626;9.906;2022-11-14T08:51:03;55.60;;;32.30;;
14892;SDS011;7538;53.626;9.906;2022-11-14T08:53:32;54.77;;;31.10;;
14892;SDS011;7538;53.626;9.906;2022-11-14T08:55:59;55.00;;;31.40;;
14892;SDS011;7538;53.626;9.906;2022-11-14T08:58:27;56.57;;;30.07;;
14892;SDS011;7538;53.626;9.906;2022-11-14T09:00:58;56.37;;;30.20;;
14892;SDS011;7538;53.626;9.906;2022-11-14T09:03:26;51.90;;;29.50;;
14892;SDS011;7538;53.626;9.906;2022-11-14T09:05:52;51.23;;;31.10;;
14892;SDS011;7538;53.626;9.906;2022-11-14T09:08:20;52.13;;;30.13;;
14892;SDS011;7538;53.626;9.906;2022-11-14T09:10:48;50.83;;;30.27;;
14892;SDS011;7538;53.626;9.906;2022-11-14T09:13:15;50.40;;;29.33;;
14892;SDS011;7538;53.626;9.906;2022-11-14T09:15:42;51.93;;;30.10;;
14892;SDS011;7538;53.626;9.906;2022-11-14T09:18:09;48.13;;;30.07;;
14892;SDS011;7538;53.626;9.906;2022-11-14T09:20:37;52.27;;;30.03;;
14892;SDS011;7538;53.626;9.906;2022-11-14T09:23:04;50.33;;;30.13;;
14892;SDS011;7538;53.626;9.906;2022-11-14T09:25:31;52.93;;;30.67;;
14892;SDS011;7538;53.626;9.906;2022-11-14T09:28:01;54.90;;;29.57;;
14892;SDS011;7538;53.626;9.906;2022-11-14T09:30:29;49.70;;;27.80;;
14892;SDS011;7538;53.626;9.906;2022-11-14T09:32:57;52.30;;;30.10;;
14892;SDS011;7538;53.626;9.906;2022-11-14T09:35:26;55.90;;;29.67;;
14892;SDS011;7538;53.626;9.906;2022-11-14T09:37:58;54.27;;;28.67;;
14892;SDS011;7538;53.626;9.906;2022-11-14T09:40:25;54.00;;;30.00;;
14892;SDS011;7538;53.626;9.906;2022-11-14T09:43:04;52.93;;;30.20;;
14892;SDS011;7538;53.626;9.906;2022-11-14T09:45:46;51.07;;;30.60;;
14892;SDS011;7538;53.626;9.906;2022-11-14T09:48:17;52.83;;;29.70;;
14892;SDS011;7538;53.626;9.906;2022-11-14T09:50:48;55.13;;;30.67;;
14892;SDS011;7538;53.626;9.906;2022-11-14T09:53:25;58.37;;;32.07;;
14892;SDS011;7538;53.626;9.906;2022-11-14T09:55:58;57.37;;;30.87;;
14892;SDS011;7538;53.626;9.906;2022-11-14T09:58:26;54.30;;;30.70;;
14892;SDS011;7538;53.626;9.906;2022-11-14T10:00:53;55.00;;;31.53;;
14892;SDS011;7538;53.626;9.906;2022-11-14T10:03:28;56.17;;;30.37;;
14892;SDS011;7538;53.626;9.906;2022-11-14T10:06:11;52.47;;;30.97;;
14892;SDS011;7538;53.626;9.906;2022-11-14T10:08:48;52.50;;;30.23;;
14892;SDS011;7538;53.626;9.906;2022-11-14T10:11:28;58.10;;;31.87;;
14892;SDS011;7538;53.626;9.906;2022-11-14T10:14:07;56.00;;;31.00;;
14892;SDS011;7538;53.626;9.906;2022-11-14T10:16:49;51.23;;;29.17;;
14892;SDS011;7538;53.626;9.906;2022-11-14T10:19:26;50.50;;;29.03;;
14892;SDS011;7538;53.626;9.906;2022-11-14T10:22:02;54.00;;;30.83;;
14892;SDS011;7538;53.626;9.906;2022-11-14T10:24:46;54.93;;;29.97;;
14892;SDS011;7538;53.626;9.906;2022-11-14T10:27:27;52.00;;;30.40;;
14892;SDS011;7538;53.626;9.906;2022-11-14T10:30:02;48.30;;;30.67;;
14892;SDS011;7538;53.626;9.906;2022-11-14T10:32:40;50.80;;;29.60;;
14892;SDS011;7538;53.626;9.906;2022-11-14T10:35:15;49.90;;;29.30;;
14892;SDS011;7538;53.626;9.906;2022-11-14T10:37:46;56.53;;;33.00;;
14892;SDS011;7538;53.626;9.906;2022-11-14T10:40:23;46.23;;;28.23;;
14892;SDS011;7538;53.626;9.906;2022-11-14T10:43:05;46.70;;;28.73;;
14892;SDS011;7538;53.626;9.906;2022-11-14T10:45:43;43.87;;;28.03;;
14892;SDS011;7538;53.626;9.906;2022-11-14T10:48:16;46.80;;;29.47;;
14892;SDS011;7538;53.626;9.906;2022-11-14T10:50:51;46.80;;;28.70;;
14892;SDS011;7538;53.626;9.906;2022-11-14T10:53:24;45.83;;;28.73;;
14892;SDS011;7538;53.626;9.906;2022-11-14T10:55:54;45.33;;;28.87;;
14892;SDS011;7538;53.626;9.906;2022-11-14T10:58:21;48.60;;;29.07;;
14892;SDS011;7538;53.626;9.906;2022-11-14T11:00:50;43.07;;;26.93;;
14892;SDS011;7538;53.626;9.906;2022-11-14T11:03:17;47.13;;;27.90;;
14892;SDS011;7538;53.626;9.906;2022-11-14T11:05:45;43.83;;;27.90;;
14892;SDS011;7538;53.626;9.906;2022-11-14T11:08:17;42.53;;;27.00;;
14892;SDS011;7538;53.626;9.906;2022-11-14T11:11:01;42.50;;;26.60;;
14892;SDS011;7538;53.626;9.906;2022-11-14T11:14:00;40.53;;;26.27;;
14892;SDS011;7538;53.626;9.906;2022-11-14T11:16:29;40.53;;;26.17;;
14892;SDS011;7538;53.626;9.906;2022-11-14T11:19:03;41.33;;;25.80;;
14892;SDS011;7538;53.626;9.906;2022-11-14T11:21:45;38.27;;;26.27;;
14892;SDS011;7538;53.626;9.906;2022-11-14T11:24:23;37.27;;;23.87;;
14892;SDS011;7538;53.626;9.906;2022-11-14T11:27:12;42.20;;;26.52;;
14892;SDS011;7538;53.626;9.906;2022-11-14T11:29:46;37.53;;;25.27;;
14892;SDS011;7538;53.626;9.906;2022-11-14T11:32:28;38.50;;;25.17;;
14892;SDS011;7538;53.626;9.906;2022-11-14T11:34:55;34.67;;;24.60;;
14892;SDS011;7538;53.626;9.906;2022-11-14T11:37:23;37.63;;;26.45;;
14892;SDS011;7538;53.626;9.906;2022-11-14T11:39:53;39.03;;;26.77;;
14892;SDS011;7538;53.626;9.906;2022-11-14T11:42:22;39.63;;;24.13;;
14892;SDS011;7538;53.626;9.906;2022-11-14T11:44:54;34.97;;;24.52;;
14892;SDS011;7538;53.626;9.906;2022-11-14T11:47:25;40.50;;;25.88;;
14892;SDS011;7538;53.626;9.906;2022-11-14T11:49:55;37.10;;;25.77;;
14892;SDS011;7538;53.626;9.906;2022-11-14T11:52:25;39.78;;;26.23;;
14892;SDS011;7538;53.626;9.906;2022-11-14T11:54:58;35.55;;;25.13;;
14892;SDS011;7538;53.626;9.906;2022-11-14T11:57:31;38.35;;;25.95;;
14892;SDS011;7538;53.626;9.906;2022-11-14T12:00:05;37.95;;;25.73;;
14892;SDS011;7538;53.626;9.906;2022-11-14T12:02:39;40.27;;;26.17;;
14892;SDS011;7538;53.626;9.906;2022-11-14T12:05:11;40.67;;;25.08;;
14892;SDS011;7538;53.626;9.906;2022-11-14T12:07:43;39.60;;;25.70;;
14892;SDS011;7538;53.626;9.906;2022-11-14T12:10:16;39.00;;;26.40;;
14892;SDS011;7538;53.626;9.906;2022-11-14T12:12:51;37.07;;;25.97;;
14892;SDS011;7538;53.626;9.906;2022-11-14T12:15:37;37.85;;;24.80;;
14892;SDS011;7538;53.626;9.906;2022-11-14T12:18:14;38.13;;;24.50;;
14892;SDS011;7538;53.626;9.906;2022-11-14T12:21:05;41.00;;;24.23;;
14892;SDS011;7538;53.626;9.906;2022-11-14T12:23:51;37.92;;;24.58;;
14892;SDS011;7538;53.626;9.906;2022-11-14T12:26:34;39.42;;;25.45;;
14892;SDS011;7538;53.626;9.906;2022-11-14T12:29:21;33.10;;;24.35;;
14892;SDS011;7538;53.626;9.906;2022-11-14T12:32:02;35.83;;;23.67;;
14892;SDS011;7538;53.626;9.906;2022-11-14T12:34:32;35.95;;;25.13;;
14892;SDS011;7538;53.626;9.906;2022-11-14T12:37:07;34.58;;;23.17;;
14892;SDS011;7538;53.626;9.906;2022-11-14T12:39:36;35.57;;;25.43;;
14892;SDS011;7538;53.626;9.906;2022-11-14T12:42:04;35.00;;;23.47;;
14892;SDS011;7538;53.626;9.906;2022-11-14T12:44:33;38.13;;;25.58;;
14892;SDS011;7538;53.626;9.906;2022-11-14T12:47:12;37.08;;;23.85;;
14892;SDS011;7538;53.626;9.906;2022-11-14T12:49:57;33.67;;;23.33;;
14892;SDS011;7538;53.626;9.906;2022-11-14T12:52:40;39.08;;;26.00;;
14892;SDS011;7538;53.626;9.906;2022-11-14T12:58:09;35.13;;;22.50;;
14892;SDS011;7538;53.626;9.906;2022-11-14T13:00:40;35.20;;;24.80;;
14892;SDS011;7538;53.626;9.906;2022-11-14T13:03:35;36.60;;;23.52;;
14892;SDS011;7538;53.626;9.906;2022-11-14T13:06:18;36.47;;;24.10;;
14892;SDS011;7538;53.626;9.906;2022-11-14T13:08:56;37.80;;;25.77;;
14892;SDS011;7538;53.626;9.906;2022-11-14T13:11:43;35.13;;;24.08;;
14892;SDS011;7538;53.626;9.906;2022-11-14T13:14:29;36.00;;;25.08;;
14892;SDS011;7538;53.626;9.906;2022-11-14T13:17:22;34.28;;;23.15;;
14892;SDS011;7538;53.626;9.906;2022-11-14T13:20:27;34.35;;;23.60;;
14892;SDS011;7538;53.626;9.906;2022-11-14T13:26:35;38.78;;;26.13;;
14892;SDS011;7538;53.626;9.906;2022-11-14T13:35:36;36.80;;;23.87;;
14892;SDS011;7538;53.626;9.906;2022-11-14T13:38:16;39.80;;;25.50;;
14892;SDS011;7538;53.626;9.906;2022-11-14T13:41:05;34.92;;;23.45;;
14892;SDS011;7538;53.626;9.906;2022-11-14T13:43:50;40.65;;;25.15;;
14892;SDS011;7538;53.626;9.906;2022-11-14T13:46:28;39.40;;;26.93;;
14892;SDS011;7538;53.626;9.906;2022-11-14T13:49:13;37.00;;;24.60;;
14892;SDS011;7538;53.626;9.906;2022-11-14T13:51:54;38.67;;;24.67;;
14892;SDS011;7538;53.626;9.906;2022-11-14T13:54:21;37.93;;;25.43;;
14892;SDS011;7538;53.626;9.906;2022-11-14T13:56:51;37.97;;;24.43;;
14892;SDS011;7538;53.626;9.906;2022-11-14T13:59:34;41.23;;;26.97;;
14892;SDS011;7538;53.626;9.906;2022-11-14T14:02:16;39.43;;;25.63;;
14892;SDS011;7538;53.626;9.906;2022-11-14T14:05:08;40.33;;;25.38;;
14892;SDS011;7538;53.626;9.906;2022-11-14T14:07:49;44.63;;;27.73;;
14892;SDS011;7538;53.626;9.906;2022-11-14T14:10:25;38.73;;;26.20;;
14892;SDS011;7538;53.626;9.906;2022-11-14T14:12:59;37.37;;;25.10;;
14892;SDS011;7538;53.626;9.906;2022-11-14T14:15:37;37.77;;;26.47;;
14892;SDS011;7538;53.626;9.906;2022-11-14T14:18:14;39.65;;;26.00;;
14892;SDS011;7538;53.626;9.906;2022-11-14T14:20:52;36.87;;;25.93;;
14892;SDS011;7538;53.626;9.906;2022-11-14T14:23:27;35.67;;;25.60;;
14892;SDS011;7538;53.626;9.906;2022-11-14T14:26:04;38.23;;;25.93;;
14892;SDS011;7538;53.626;9.906;2022-11-14T14:28:41;43.37;;;26.83;;
14892;SDS011;7538;53.626;9.906;2022-11-14T14:31:18;38.35;;;26.95;;
14892;SDS011;7538;53.626;9.906;2022-11-14T14:33:47;33.83;;;23.40;;
14892;SDS011;7538;53.626;9.906;2022-11-14T14:36:19;35.47;;;24.47;;
14892;SDS011;7538;53.626;9.906;2022-11-14T14:38:48;37.70;;;25.02;;
14892;SDS011;7538;53.626;9.906;2022-11-14T14:41:15;36.40;;;24.20;;
14892;SDS011;7538;53.626;9.906;2022-11-14T14:43:48;35.58;;;24.05;;
14892;SDS011;7538;53.626;9.906;2022-11-14T14:46:25;37.00;;;24.88;;
14892;SDS011;7538;53.626;9.906;2022-11-14T14:48:54;39.17;;;25.52;;
14892;SDS011;7538;53.626;9.906;2022-11-14T14:51:28;35.00;;;24.57;;
14892;SDS011;7538;53.626;9.906;2022-11-14T14:53:56;37.87;;;24.73;;
14892;SDS011;7538;53.626;9.906;2022-11-14T14:56:23;40.63;;;25.80;;
14892;SDS011;7538;53.626;9.906;2022-11-14T14:58:50;37.30;;;25.83;;
14892;SDS011;7538;53.626;9.906;2022-11-14T15:01:18;36.47;;;24.70;;
14892;SDS011;7538;53.626;9.906;2022-11-14T15:03:49;37.57;;;24.77;;
14892;SDS011;7538;53.626;9.906;2022-11-14T15:06:20;43.97;;;27.35;;
14892;SDS011;7538;53.626;9.906;2022-11-14T15:08:53;38.00;;;24.80;;